createdAt,value
2018-12-22T00:00:55.006Z,42.00
2018-12-22T00:03:27.356Z,32.60
2018-12-22T00:05:59.643Z,29.20
2018-12-22T00:08:31.954Z,39.63
2018-12-22T00:11:04.265Z,36.40
2018-12-22T00:13:36.582Z,35.60
2018-12-22T00:16:08.894Z,37.30
2018-12-22T00:18:42.228Z,35.87
2018-12-22T00:21:14.686Z,36.60
2018-12-22T00:23:47.039Z,33.87
2018-12-22T00:26:19.579Z,41.33
2018-12-22T00:28:51.892Z,37.13
2018-12-22T00:31:24.239Z,29.47
2018-12-22T00:33:56.570Z,30.87
2018-12-22T00:36:29.158Z,28.87
2018-12-22T00:39:01.482Z,36.20
2018-12-22T00:41:33.803Z,36.47
2018-12-22T00:44:06.122Z,35.87
2018-12-22T00:46:38.459Z,30.90
2018-12-22T00:49:10.753Z,36.07
2018-12-22T00:51:43.109Z,28.63
2018-12-22T00:54:15.414Z,33.90
2018-12-22T00:56:47.755Z,34.83
2018-12-22T00:59:20.091Z,24.73
2018-12-22T01:01:52.918Z,25.57
2018-12-22T01:04:25.290Z,32.87
2018-12-22T01:06:57.746Z,23.87
2018-12-22T01:09:30.334Z,24.13
2018-12-22T01:12:02.828Z,42.73
2018-12-22T01:14:35.433Z,29.67
2018-12-22T01:17:07.762Z,39.43
2018-12-22T01:19:40.083Z,31.67
2018-12-22T01:22:12.419Z,34.47
2018-12-22T01:24:44.757Z,35.63
2018-12-22T01:27:17.075Z,40.23
2018-12-22T01:29:49.412Z,26.30
2018-12-22T01:32:22.054Z,35.70
2018-12-22T01:34:54.606Z,29.83
2018-12-22T01:37:27.185Z,30.83
2018-12-22T01:39:59.501Z,28.93
2018-12-22T01:42:31.846Z,30.70
2018-12-22T01:45:04.540Z,39.13
2018-12-22T01:47:36.951Z,38.03
2018-12-22T01:50:09.281Z,31.57
2018-12-22T01:52:41.860Z,28.70
2018-12-22T01:55:14.191Z,28.27
2018-12-22T01:57:46.504Z,30.53
2018-12-22T02:00:19.042Z,35.57
2018-12-22T02:02:52.439Z,27.80
2018-12-22T02:05:24.763Z,29.93
2018-12-22T02:07:57.082Z,36.17
2018-12-22T02:10:29.406Z,26.47
2018-12-22T02:13:01.742Z,27.30
2018-12-22T02:15:34.141Z,29.17
2018-12-22T02:18:06.486Z,28.30
2018-12-22T02:20:38.828Z,27.27
2018-12-22T02:23:11.166Z,30.87
2018-12-22T02:25:43.530Z,28.10
2018-12-22T02:28:15.884Z,26.17
2018-12-22T02:30:48.426Z,36.77
2018-12-22T02:33:21.028Z,26.97
2018-12-22T02:35:53.357Z,32.97
2018-12-22T02:38:25.682Z,22.23
2018-12-22T02:40:58.002Z,27.83
2018-12-22T02:43:30.774Z,36.20
2018-12-22T02:46:03.397Z,27.43
2018-12-22T02:48:35.806Z,24.87
2018-12-22T02:51:08.435Z,25.10
2018-12-22T02:53:40.785Z,20.57
2018-12-22T02:56:13.105Z,30.17
2018-12-22T02:58:45.447Z,35.83
2018-12-22T03:01:17.746Z,27.13
2018-12-22T03:03:50.305Z,22.20
2018-12-22T03:06:23.261Z,27.30
2018-12-22T03:08:55.579Z,25.37
2018-12-22T03:11:27.990Z,26.93
2018-12-22T03:14:00.358Z,26.40
2018-12-22T03:16:32.683Z,21.77
2018-12-22T03:19:05.021Z,30.53
2018-12-22T03:21:37.335Z,24.30
2018-12-22T03:24:09.962Z,25.27
2018-12-22T03:26:42.278Z,27.53
2018-12-22T03:29:15.760Z,32.47
2018-12-22T03:31:48.430Z,23.27
2018-12-22T03:34:20.835Z,23.23
2018-12-22T03:36:53.157Z,23.57
2018-12-22T03:39:25.554Z,21.80
2018-12-22T03:41:57.863Z,27.37
2018-12-22T03:44:30.213Z,21.90
2018-12-22T03:47:02.841Z,22.07
2018-12-22T03:49:41.755Z,24.20
2018-12-22T03:52:14.077Z,18.80
2018-12-22T03:54:46.423Z,19.93
2018-12-22T03:57:18.737Z,19.43
2018-12-22T03:59:51.085Z,18.27
2018-12-22T04:02:23.402Z,13.40
2018-12-22T04:04:55.797Z,18.37
2018-12-22T04:07:28.102Z,17.37
2018-12-22T04:10:00.498Z,18.30
2018-12-22T04:12:32.814Z,18.37
2018-12-22T04:15:05.128Z,15.73
2018-12-22T04:17:37.450Z,16.83
2018-12-22T04:20:09.807Z,14.03
2018-12-22T04:22:42.396Z,13.13
2018-12-22T04:25:14.829Z,11.30
2018-12-22T04:27:47.154Z,8.57
2018-12-22T04:30:19.758Z,5.77
2018-12-22T04:32:52.301Z,8.10
2018-12-22T04:35:24.639Z,7.53
2018-12-22T04:37:56.952Z,6.17
2018-12-22T04:40:29.336Z,6.73
2018-12-22T04:43:01.650Z,7.63
2018-12-22T04:45:33.990Z,5.63
2018-12-22T04:48:06.439Z,3.17
2018-12-22T04:50:38.765Z,5.63
2018-12-22T04:53:11.086Z,5.47
2018-12-22T04:55:43.492Z,4.90
2018-12-22T04:58:15.810Z,3.87
2018-12-22T05:00:48.121Z,7.87
2018-12-22T05:03:20.438Z,9.83
2018-12-22T05:05:52.755Z,9.63
2018-12-22T05:08:25.124Z,14.10
2018-12-22T05:10:57.546Z,13.30
2018-12-22T05:13:29.877Z,14.33
2018-12-22T05:16:02.229Z,12.43
2018-12-22T05:18:34.579Z,16.10
2018-12-22T05:21:07.152Z,10.90
2018-12-22T05:23:39.462Z,16.47
2018-12-22T05:26:11.799Z,13.07
2018-12-22T05:28:44.130Z,14.20
2018-12-22T05:31:16.654Z,12.80
2018-12-22T05:33:48.967Z,13.33
2018-12-22T05:36:21.307Z,13.03
2018-12-22T05:38:53.637Z,14.67
2018-12-22T05:41:25.975Z,13.20
2018-12-22T05:43:58.290Z,16.53
2018-12-22T05:46:30.858Z,10.30
2018-12-22T05:49:03.178Z,13.10
2018-12-22T05:51:36.519Z,13.97
2018-12-22T05:54:08.838Z,11.97
2018-12-22T05:56:41.366Z,14.07
2018-12-22T05:59:13.786Z,12.87
2018-12-22T06:01:46.114Z,15.50
2018-12-22T06:04:18.458Z,13.17
2018-12-22T06:06:50.899Z,9.87
2018-12-22T06:09:23.215Z,18.30
2018-12-22T06:11:55.822Z,13.47
2018-12-22T06:14:28.156Z,13.90
2018-12-22T06:17:00.494Z,17.93
2018-12-22T06:19:32.822Z,12.93
2018-12-22T06:22:05.153Z,12.73
2018-12-22T06:24:37.711Z,13.80
2018-12-22T06:27:10.155Z,10.03
2018-12-22T06:29:42.556Z,18.77
2018-12-22T06:32:14.894Z,17.67
2018-12-22T06:34:47.201Z,11.83
2018-12-22T06:37:19.554Z,19.83
2018-12-22T06:39:51.862Z,16.17
2018-12-22T06:42:24.204Z,15.73
2018-12-22T06:44:56.518Z,18.77
2018-12-22T06:47:28.839Z,15.70
2018-12-22T06:50:01.158Z,12.40
2018-12-22T06:52:33.499Z,17.40
2018-12-22T06:55:05.853Z,19.30
2018-12-22T06:57:38.281Z,17.33
2018-12-22T07:00:17.544Z,12.77
2018-12-22T07:02:44.896Z,14.73
2018-12-22T07:05:17.218Z,13.73
2018-12-22T07:07:49.557Z,10.70
2018-12-22T07:10:21.884Z,14.80
2018-12-22T07:12:54.238Z,9.57
2018-12-22T07:15:26.553Z,15.17
2018-12-22T07:17:58.887Z,13.43
2018-12-22T07:20:31.222Z,9.80
2018-12-22T07:23:03.555Z,13.23
2018-12-22T07:25:35.975Z,7.87
2018-12-22T07:28:13.062Z,5.70
2018-12-22T07:30:45.367Z,8.13
2018-12-22T07:33:17.778Z,7.20
2018-12-22T07:35:50.100Z,10.47
2018-12-22T07:38:22.438Z,7.93
2018-12-22T07:40:54.747Z,7.57
2018-12-22T07:43:27.127Z,6.90
2018-12-22T07:45:59.525Z,6.73
2018-12-22T07:48:31.886Z,8.77
2018-12-22T07:51:04.191Z,5.47
2018-12-22T07:53:36.503Z,9.10
2018-12-22T07:56:08.810Z,9.80
2018-12-22T07:58:41.194Z,8.03
2018-12-22T08:01:13.538Z,6.47
2018-12-22T08:03:45.850Z,7.97
2018-12-22T08:06:18.174Z,10.97
2018-12-22T08:08:50.506Z,9.07
2018-12-22T08:11:22.825Z,9.27
2018-12-22T08:13:55.158Z,10.67
2018-12-22T08:16:27.494Z,14.57
2018-12-22T08:18:59.863Z,13.03
2018-12-22T08:21:32.182Z,12.43
2018-12-22T08:24:04.493Z,8.70
2018-12-22T08:26:36.823Z,8.83
2018-12-22T08:29:09.522Z,8.57
2018-12-22T08:31:41.825Z,11.90
2018-12-22T08:34:14.165Z,8.83
2018-12-22T08:36:46.474Z,8.63
2018-12-22T08:39:18.803Z,14.57
2018-12-22T08:41:51.110Z,11.53
2018-12-22T08:44:23.463Z,12.17
2018-12-22T08:46:55.777Z,9.93
2018-12-22T08:49:28.226Z,7.60
2018-12-22T08:52:00.569Z,11.60
2018-12-22T08:54:32.874Z,8.50
2018-12-22T08:57:05.243Z,12.50
2018-12-22T08:59:37.582Z,7.10
2018-12-22T09:02:09.888Z,9.30
2018-12-22T09:04:42.345Z,12.87
2018-12-22T09:07:14.658Z,6.97
2018-12-22T09:09:47.002Z,8.73
2018-12-22T09:12:19.318Z,5.57
2018-12-22T09:14:51.880Z,7.40
2018-12-22T09:17:24.186Z,16.10
2018-12-22T09:19:56.524Z,6.63
2018-12-22T09:22:28.885Z,9.80
2018-12-22T09:25:01.203Z,9.70
2018-12-22T09:27:33.524Z,6.77
2018-12-22T09:30:09.296Z,9.33
2018-12-22T09:32:41.626Z,10.40
2018-12-22T09:35:13.947Z,9.60
2018-12-22T09:37:46.271Z,14.00
2018-12-22T09:40:18.877Z,9.17
2018-12-22T09:42:51.186Z,10.97
2018-12-22T09:45:23.501Z,5.70
2018-12-22T09:47:55.843Z,6.10
2018-12-22T09:50:28.425Z,9.77
2018-12-22T09:53:00.822Z,12.27
2018-12-22T09:55:33.156Z,11.00
2018-12-22T09:58:05.482Z,9.83
2018-12-22T10:00:37.846Z,10.50
2018-12-22T10:03:10.221Z,7.07
2018-12-22T10:05:42.559Z,15.07
2018-12-22T10:08:14.870Z,10.57
2018-12-22T10:10:47.491Z,8.13
2018-12-22T10:13:19.842Z,12.43
2018-12-22T10:15:52.162Z,12.27
2018-12-22T10:18:24.513Z,7.17
2018-12-22T10:20:57.129Z,8.67
2018-12-22T10:23:29.502Z,11.13
2018-12-22T10:26:01.858Z,7.17
2018-12-22T10:28:34.272Z,13.20
2018-12-22T10:31:06.611Z,12.40
2018-12-22T10:33:38.935Z,11.50
2018-12-22T10:36:11.265Z,9.63
2018-12-22T10:38:49.314Z,9.00
2018-12-22T10:41:21.639Z,9.77
2018-12-22T10:43:53.980Z,10.93
2018-12-22T10:46:26.298Z,12.73
2018-12-22T10:48:58.639Z,12.40
2018-12-22T10:51:30.973Z,12.50
2018-12-22T10:54:03.284Z,9.50
2018-12-22T10:56:35.653Z,12.17
2018-12-22T10:59:07.960Z,11.90
2018-12-22T11:01:40.294Z,7.20
2018-12-22T11:04:12.684Z,11.47
2018-12-22T11:06:45.025Z,10.83
2018-12-22T11:09:18.633Z,9.97
2018-12-22T11:11:50.950Z,12.07
2018-12-22T11:14:23.265Z,13.10
2018-12-22T11:16:55.850Z,11.40
2018-12-22T11:19:28.181Z,9.93
2018-12-22T11:22:00.526Z,9.23
2018-12-22T11:24:32.959Z,10.90
2018-12-22T11:27:05.335Z,11.47
2018-12-22T11:29:37.655Z,10.90
2018-12-22T11:32:09.974Z,13.93
2018-12-22T11:34:42.309Z,12.90
2018-12-22T11:37:14.662Z,12.37
2018-12-22T11:39:46.988Z,15.33
2018-12-22T11:42:19.568Z,17.30
2018-12-22T11:44:51.886Z,15.37
2018-12-22T11:47:36.657Z,13.23
2018-12-22T11:50:15.331Z,19.07
2018-12-22T11:52:47.650Z,11.80
2018-12-22T11:55:19.967Z,12.70
2018-12-22T11:57:52.295Z,10.67
2018-12-22T12:00:24.612Z,12.50
2018-12-22T12:02:56.938Z,12.97
2018-12-22T12:05:29.265Z,11.37
2018-12-22T12:08:01.637Z,11.80
2018-12-22T12:10:33.954Z,8.30
2018-12-22T12:13:06.283Z,13.47
2018-12-22T12:15:51.479Z,14.63
2018-12-22T12:18:41.950Z,9.70
2018-12-22T12:21:14.251Z,13.30
2018-12-22T12:23:46.567Z,11.23
2018-12-22T12:26:18.885Z,10.90
2018-12-22T12:28:51.211Z,11.57
2018-12-22T12:31:23.534Z,10.27
2018-12-22T12:33:55.858Z,12.30
2018-12-22T12:36:28.180Z,14.63
2018-12-22T12:39:00.513Z,15.07
2018-12-22T12:41:32.821Z,6.77
2018-12-22T12:44:05.138Z,9.77
2018-12-22T12:46:47.346Z,15.50
2018-12-22T12:49:20.325Z,10.20
2018-12-22T12:51:52.641Z,9.17
2018-12-22T12:54:24.953Z,10.17
2018-12-22T12:56:58.354Z,13.13
2018-12-22T12:59:32.173Z,15.83
2018-12-22T13:02:06.308Z,15.13
2018-12-22T13:04:38.660Z,12.57
2018-12-22T13:07:11.050Z,9.30
2018-12-22T13:09:43.375Z,11.00
2018-12-22T13:12:19.668Z,12.63
2018-12-22T13:14:52.009Z,17.43
2018-12-22T13:17:24.345Z,13.47
2018-12-22T13:19:56.691Z,12.13
2018-12-22T13:22:29.073Z,11.47
2018-12-22T13:25:01.396Z,12.07
2018-12-22T13:27:35.027Z,13.00
2018-12-22T13:30:09.543Z,12.00
2018-12-22T13:32:41.886Z,13.77
2018-12-22T13:35:14.236Z,14.87
2018-12-22T13:37:46.553Z,16.37
2018-12-22T13:40:18.985Z,12.73
2018-12-22T13:42:51.300Z,11.53
2018-12-22T13:45:23.646Z,10.77
2018-12-22T13:47:56.051Z,14.93
2018-12-22T13:50:28.743Z,16.43
2018-12-22T13:53:01.097Z,15.83
2018-12-22T13:55:33.418Z,12.53
2018-12-22T13:58:05.742Z,18.30
2018-12-22T14:00:42.522Z,15.27
2018-12-22T14:03:18.099Z,14.10
2018-12-22T14:05:50.493Z,12.80
2018-12-22T14:08:22.850Z,13.60
2018-12-22T14:10:55.180Z,15.47
2018-12-22T14:13:27.551Z,14.90
2018-12-22T14:16:05.919Z,14.27
2018-12-22T14:18:45.093Z,12.23
2018-12-22T14:21:17.439Z,14.13
2018-12-22T14:24:00.684Z,14.97
2018-12-22T14:26:33.235Z,13.30
2018-12-22T14:29:05.539Z,12.70
2018-12-22T14:34:21.016Z,13.03
2018-12-22T14:36:53.347Z,18.83
2018-12-22T14:39:25.654Z,16.03
2018-12-22T14:41:57.990Z,17.77
2018-12-22T14:44:30.304Z,16.03
2018-12-22T14:47:02.666Z,18.30
2018-12-22T14:49:34.980Z,17.50
2018-12-22T14:52:07.315Z,14.90
2018-12-22T14:54:39.640Z,17.97
2018-12-22T14:57:12.098Z,18.23
2018-12-22T14:59:45.145Z,14.53
2018-12-22T15:02:17.475Z,15.13
2018-12-22T15:04:49.797Z,21.90
2018-12-22T15:07:22.133Z,16.83
2018-12-22T15:09:54.571Z,18.03
2018-12-22T15:12:26.902Z,18.43
2018-12-22T15:14:59.218Z,15.97
2018-12-22T15:17:31.556Z,18.10
2018-12-22T15:20:06.923Z,11.43
2018-12-22T15:22:39.512Z,25.33
2018-12-22T15:25:11.830Z,14.50
2018-12-22T15:27:44.159Z,15.43
2018-12-22T15:30:16.502Z,14.37
2018-12-22T15:32:54.476Z,20.40
2018-12-22T15:35:23.128Z,17.60
2018-12-22T15:37:55.478Z,13.03
2018-12-22T15:40:27.803Z,12.23
2018-12-22T15:43:00.134Z,15.93
2018-12-22T15:45:32.518Z,14.30
2018-12-22T15:48:05.106Z,18.93
2018-12-22T15:50:38.914Z,20.33
2018-12-22T15:53:11.281Z,17.50
2018-12-22T15:55:43.602Z,16.17
2018-12-22T15:58:15.942Z,12.60
2018-12-22T16:00:48.266Z,25.93
2018-12-22T16:03:20.604Z,26.97
2018-12-22T16:05:52.935Z,19.70
2018-12-22T16:08:25.254Z,19.17
2018-12-22T16:10:57.563Z,19.40
2018-12-22T16:13:29.890Z,20.00
2018-12-22T16:16:02.219Z,14.93
2018-12-22T16:18:34.555Z,19.00
2018-12-22T16:21:06.899Z,22.17
2018-12-22T16:23:39.530Z,22.60
2018-12-22T16:26:11.870Z,15.40
2018-12-22T16:28:48.389Z,13.93
2018-12-22T16:31:20.697Z,23.67
2018-12-22T16:33:53.042Z,15.53
2018-12-22T16:36:25.374Z,15.13
2018-12-22T16:38:57.679Z,15.00
2018-12-22T16:41:30.006Z,20.77
2018-12-22T16:44:03.543Z,17.07
2018-12-22T16:46:35.888Z,20.20
2018-12-22T16:49:08.206Z,23.33
2018-12-22T16:51:40.520Z,31.00
2018-12-22T16:54:12.839Z,23.20
2018-12-22T16:56:51.919Z,20.00
2018-12-22T16:59:26.467Z,21.83
2018-12-22T17:02:08.553Z,24.47
2018-12-22T17:04:47.768Z,20.33
2018-12-22T17:07:20.126Z,23.53
2018-12-22T17:09:52.722Z,23.37
2018-12-22T17:12:25.063Z,21.03
2018-12-22T17:14:57.397Z,23.53
2018-12-22T17:17:29.798Z,23.33
2018-12-22T17:20:02.172Z,16.17
2018-12-22T17:22:45.465Z,23.27
2018-12-22T17:25:22.841Z,25.07
2018-12-22T17:27:55.180Z,21.97
2018-12-22T17:30:27.551Z,21.93
2018-12-22T17:33:00.153Z,19.13
2018-12-22T17:35:33.160Z,20.70
2018-12-22T17:38:05.534Z,22.40
2018-12-22T17:40:37.870Z,25.33
2018-12-22T17:43:10.270Z,19.23
2018-12-22T17:45:42.594Z,26.13
2018-12-22T17:48:14.941Z,27.63
2018-12-22T17:50:47.432Z,27.67
2018-12-22T17:53:19.777Z,22.63
2018-12-22T17:55:52.102Z,19.13
2018-12-22T17:58:24.414Z,18.80
2018-12-22T18:00:56.725Z,25.63
2018-12-22T18:03:32.626Z,18.43
2018-12-22T18:06:04.964Z,32.80
2018-12-22T18:08:37.302Z,24.63
2018-12-22T18:11:09.619Z,18.83
2018-12-22T18:13:41.955Z,22.80
2018-12-22T18:16:14.267Z,16.20
2018-12-22T18:18:46.643Z,23.37
2018-12-22T18:21:18.965Z,21.50
2018-12-22T18:23:51.297Z,17.10
2018-12-22T18:26:25.168Z,25.37
2018-12-22T18:28:57.747Z,14.27
2018-12-22T18:31:30.075Z,21.57
2018-12-22T18:34:02.408Z,20.90
2018-12-22T18:36:34.974Z,20.57
2018-12-22T18:39:07.305Z,16.23
2018-12-22T18:41:41.369Z,23.03
2018-12-22T18:44:13.712Z,15.50
2018-12-22T18:46:46.032Z,24.83
2018-12-22T18:49:18.434Z,19.73
2018-12-22T18:51:50.739Z,22.50
2018-12-22T18:54:23.074Z,18.87
2018-12-22T18:56:55.398Z,15.30
2018-12-22T18:59:27.714Z,23.00
2018-12-22T19:02:00.021Z,27.87
2018-12-22T19:04:32.343Z,19.43
2018-12-22T19:07:04.683Z,21.33
2018-12-22T19:09:38.632Z,20.00
2018-12-22T19:12:15.368Z,23.73
2018-12-22T19:14:53.171Z,21.57
2018-12-22T19:17:25.510Z,24.80
2018-12-22T19:19:58.012Z,49.80
2018-12-22T19:22:30.318Z,45.10
2018-12-22T19:25:02.882Z,35.60
2018-12-22T19:27:35.227Z,21.63
2018-12-22T19:30:07.597Z,19.73
2018-12-22T19:32:39.942Z,23.17
2018-12-22T19:35:12.287Z,18.43
2018-12-22T19:37:44.841Z,24.87
2018-12-22T19:40:17.298Z,27.40
2018-12-22T19:42:49.785Z,17.93
2018-12-22T19:45:22.168Z,23.97
2018-12-22T19:47:54.526Z,24.17
2018-12-22T19:50:26.982Z,21.00
2018-12-22T19:52:59.335Z,25.77
2018-12-22T19:55:31.815Z,32.27
2018-12-22T19:58:04.313Z,26.50
2018-12-22T20:00:36.643Z,34.53
2018-12-22T20:03:08.983Z,27.03
2018-12-22T20:05:41.394Z,27.43
2018-12-22T20:08:13.718Z,30.97
2018-12-22T20:10:46.101Z,29.77
2018-12-22T20:13:18.546Z,22.50
2018-12-22T20:15:51.393Z,23.67
2018-12-22T20:18:23.725Z,24.83
2018-12-22T20:20:56.440Z,19.13
2018-12-22T20:23:28.860Z,23.37
2018-12-22T20:26:01.533Z,26.23
2018-12-22T20:28:33.887Z,25.33
2018-12-22T20:31:06.231Z,27.10
2018-12-22T20:33:38.548Z,23.23
2018-12-22T20:36:10.941Z,21.60
2018-12-22T20:38:43.306Z,26.80
2018-12-22T20:41:16.022Z,18.77
2018-12-22T20:43:48.417Z,24.83
2018-12-22T20:46:22.690Z,28.13
2018-12-22T20:48:55.086Z,22.70
2018-12-22T20:51:27.430Z,17.83
2018-12-22T20:53:59.722Z,29.93
2018-12-22T20:56:32.053Z,19.27
2018-12-22T20:59:04.422Z,18.13
2018-12-22T21:01:36.751Z,18.40
2018-12-22T21:04:09.071Z,19.50
2018-12-22T21:06:41.691Z,20.30
2018-12-22T21:09:14.012Z,14.87
2018-12-22T21:11:46.342Z,18.80
2018-12-22T21:14:18.678Z,16.03
2018-12-22T21:16:51.044Z,20.07
2018-12-22T21:19:23.379Z,22.90
2018-12-22T21:21:55.806Z,17.63
2018-12-22T21:24:28.189Z,17.87
2018-12-22T21:27:00.539Z,19.13
2018-12-22T21:29:32.839Z,22.10
2018-12-22T21:32:05.174Z,18.33
2018-12-22T21:34:37.482Z,27.37
2018-12-22T21:37:09.802Z,20.77
2018-12-22T21:39:42.139Z,21.17
2018-12-22T21:42:14.457Z,16.80
2018-12-22T21:44:46.783Z,22.20
2018-12-22T21:47:19.127Z,20.90
2018-12-22T21:49:51.438Z,17.33
2018-12-22T21:52:23.793Z,23.80
2018-12-22T21:54:56.294Z,18.10
2018-12-22T21:57:28.912Z,15.03
2018-12-22T22:00:01.266Z,22.83
2018-12-22T22:02:33.872Z,24.63
2018-12-22T22:05:06.220Z,21.20
2018-12-22T22:07:38.954Z,21.33
2018-12-22T22:10:11.310Z,19.47
2018-12-22T22:12:43.655Z,23.80
2018-12-22T22:15:16.083Z,31.13
2018-12-22T22:17:48.455Z,25.07
2018-12-22T22:20:20.778Z,21.43
2018-12-22T22:22:53.170Z,22.87
2018-12-22T22:25:25.487Z,22.70
2018-12-22T22:27:57.826Z,24.07
2018-12-22T22:30:30.130Z,22.53
2018-12-22T22:33:02.476Z,20.67
2018-12-22T22:35:35.585Z,22.73
2018-12-22T22:38:08.268Z,23.90
2018-12-22T22:40:40.595Z,20.17
2018-12-22T22:43:12.936Z,22.90
2018-12-22T22:45:45.266Z,23.10
2018-12-22T22:48:17.611Z,22.40
2018-12-22T22:50:49.928Z,23.50
2018-12-22T22:53:22.250Z,23.07
2018-12-22T22:55:54.582Z,25.83
2018-12-22T22:58:27.097Z,21.97
2018-12-22T23:00:59.407Z,20.10
2018-12-22T23:03:31.745Z,22.23
2018-12-22T23:06:04.070Z,24.57
2018-12-22T23:08:36.415Z,19.80
2018-12-22T23:11:08.735Z,17.90
2018-12-22T23:13:41.067Z,24.10
2018-12-22T23:16:13.390Z,25.20
2018-12-22T23:18:45.748Z,21.50
2018-12-22T23:21:18.072Z,20.03
2018-12-22T23:23:50.396Z,23.60
2018-12-22T23:26:22.726Z,21.70
2018-12-22T23:28:55.051Z,20.03
2018-12-22T23:31:27.375Z,28.43
2018-12-22T23:33:59.718Z,26.23
2018-12-22T23:36:32.034Z,21.10
2018-12-22T23:39:05.460Z,24.13
2018-12-22T23:41:38.041Z,27.97
2018-12-22T23:44:10.362Z,35.07
2018-12-22T23:46:42.671Z,25.67
2018-12-22T23:49:14.997Z,23.57
2018-12-22T23:51:47.335Z,13.13
2018-12-22T23:54:19.760Z,17.33
2018-12-22T23:56:52.082Z,15.43
2018-12-22T23:59:24.411Z,17.63
